DNKA

Details ICAO DNKA (KAD)
Name KADUNA
Region Nigeria
Timezone Africa/Lagos (UTC+1.0)
Plans Departing 18
Arriving 6
Stats Elevation 2,073 ft / 632 m (AMSL)
Location 10.695866° 7.320144°
Runways 1
Magnetic Variation 0.535° W
Sunrise 2017-12-14 05:41:41 UTC / 2017-12-14 06:41:41 Local
Sunset 2017-12-14 17:11:54 UTC / 2017-12-14 18:11:54 Local
Advertisement - Login to hide

Runways

ID Width Length Bearing (true) Bearing (mag) Surface Threshold Offset Overrun Length
05 197 ft / 60 m 9,860 ft / 3,005 m 49.54° 50.07° Asphalt 0 ft / 0 m 390 ft / 119 m
23 197 ft / 60 m 9,860 ft / 3,005 m 229.54° 230.07° Asphalt 0 ft / 0 m 390 ft / 119 m

Approach Navaids

Runway Type Ident Frequency Range Bearing (true) Bearing (mag) Slope Elevation
05 Localiser IKA 110.10 MHz 18 nm / 33 km 48.42° 48.95° - 2,073 ft / 632 m (AMSL)
05 Glidescope IKA 110.10 MHz 10 nm / 19 km 49.54° 50.08° 3.08° 2,067 ft / 630 m (AMSL)
05 DME IKA 110.10 MHz 18 nm / 33 km - - - 2,060 ft / 628 m (AMSL)

Map

Weather


0- 5 10 15 20 25 30 35+ Temperature / ° C

Clouds and Precipitation
Forecast for 2017-12-14 12:00 UTC. Updated an hour ago

Ground ~20,000 ft ~40,000 ft Winds

METAR

Not found

TAF

TAF DNKA 140330Z 1406/1512 02007KT CAVOK

Frequencies

Approach 122.30 MHz APP
Approach 122.60 MHz APP
Warning: Do not use this data for real-world aviation or navigation. No guarantee of current accuracy is given.